Time;durP1;ratioP1;P1;durP2;ratioP2;P2;SDS_P1;SDS_P2;PMS_P1;PMS_P2;Temp;Humidity;BMP_temperature;BMP_pressure;BME280_temperature;BME280_humidity;BME280_pressure;Samples;Min_cycle;Max_cycle;Signal;HPM_P1;HPM_P2
2023/08/19 00:00:28;;;;;;;9.53;8.77;;;;;;;17.46;nan;97053.69;5020150;28;20215;-62
2023/08/19 00:02:56;;;;;;;9.97;9.03;;;;;;;17.56;nan;97058.50;4962246;28;20208;-62
2023/08/19 00:05:25;;;;;;;7.87;7.37;;;;;;;17.55;nan;97056.84;5019761;28;20762;-62
2023/08/19 00:07:52;;;;;;;7.63;7.13;;;;;;;17.52;nan;97049.28;5012174;28;20227;-62
2023/08/19 00:10:20;;;;;;;9.37;8.57;;;;;;;17.54;nan;97052.56;5020166;28;20211;-61
2023/08/19 00:12:48;;;;;;;8.67;8.03;;;;;;;17.56;nan;97047.78;5014400;28;20585;-62
2023/08/19 00:15:15;;;;;;;8.10;7.60;;;;;;;17.42;nan;97039.13;5018491;28;20229;-63
2023/08/19 00:17:44;;;;;;;8.37;7.73;;;;;;;17.50;nan;97052.19;5013179;28;20235;-62
2023/08/19 00:20:12;;;;;;;7.90;7.30;;;;;;;17.52;nan;97068.03;5016042;28;20211;-61
2023/08/19 00:22:40;;;;;;;9.03;8.30;;;;;;;17.45;nan;97065.47;4889519;28;20227;-62
2023/08/19 00:25:09;;;;;;;8.23;7.50;;;;;;;17.43;nan;97062.19;5019110;28;20220;-61
2023/08/19 00:27:36;;;;;;;9.20;8.50;;;;;;;17.40;nan;97054.63;5016026;28;20210;-62
2023/08/19 00:30:05;;;;;;;8.43;7.87;;;;;;;17.38;nan;97052.16;5019844;28;20368;-62
2023/08/19 00:32:33;;;;;;;9.47;8.67;;;;;;;17.35;nan;97052.63;5015885;28;20223;-63
2023/08/19 00:35:02;;;;;;;9.83;9.00;;;;;;;17.33;nan;97047.53;5019708;28;20232;-63
2023/08/19 00:37:31;;;;;;;9.90;9.10;;;;;;;17.29;nan;97050.88;5011581;28;20216;-62
2023/08/19 00:39:59;;;;;;;8.83;8.13;;;;;;;17.19;nan;97046.91;5019475;28;20634;-62
2023/08/19 00:42:27;;;;;;;8.63;7.93;;;;;;;17.15;nan;97053.78;5014454;28;20201;-62
2023/08/19 00:44:55;;;;;;;8.17;7.57;;;;;;;17.01;nan;97042.44;5017969;28;20707;-62
2023/08/19 00:47:23;;;;;;;8.97;8.27;;;;;;;17.17;nan;97048.19;5010547;28;20212;-62
2023/08/19 00:49:51;;;;;;;9.03;8.27;;;;;;;17.13;nan;97047.84;5021417;28;20201;-62
2023/08/19 00:52:20;;;;;;;8.77;8.13;;;;;;;17.17;nan;97056.22;4886271;28;20231;-63
2023/08/19 00:54:48;;;;;;;8.90;8.20;;;;;;;17.16;nan;97059.94;5015086;28;20208;-63
2023/08/19 00:57:16;;;;;;;10.30;9.30;;;;;;;17.14;nan;97068.19;5013546;28;20217;-64
2023/08/19 00:59:43;;;;;;;9.13;8.50;;;;;;;17.10;nan;97066.19;5018396;28;20280;-63
2023/08/19 01:02:11;;;;;;;8.80;8.20;;;;;;;17.09;nan;97059.22;5014893;28;20206;-61
2023/08/19 01:04:39;;;;;;;9.10;8.30;;;;;;;17.05;nan;97059.69;5015495;28;20224;-61
2023/08/19 01:07:11;;;;;;;8.17;7.37;;;;;;;17.04;nan;97059.88;5010637;28;21057;-62
2023/08/19 01:09:44;;;;;;;8.53;7.83;;;;;;;16.97;nan;97064.50;5018149;28;20208;-59
2023/08/19 01:12:17;;;;;;;8.87;8.17;;;;;;;16.93;nan;97053.47;5012789;28;20657;-62
2023/08/19 01:14:51;;;;;;;8.73;8.00;;;;;;;16.93;nan;97059.59;5019641;28;20235;-61
2023/08/19 01:17:22;;;;;;;8.93;8.17;;;;;;;16.78;nan;97033.25;4980894;28;20770;-61
2023/08/19 01:19:50;;;;;;;8.83;8.03;;;;;;;16.87;nan;97055.16;4999304;28;20349;-62
2023/08/19 01:22:26;;;;;;;8.37;7.67;;;;;;;16.83;nan;97050.50;4948303;28;22408;-62
2023/08/19 01:24:55;;;;;;;8.67;7.97;;;;;;;16.79;nan;97048.28;4991257;28;20243;-63
2023/08/19 01:27:24;;;;;;;9.93;9.03;;;;;;;16.74;nan;97045.47;5015480;28;20211;-63
2023/08/19 01:29:52;;;;;;;9.03;8.43;;;;;;;16.66;nan;97042.28;5016914;28;20235;-62
2023/08/19 01:32:21;;;;;;;8.60;7.90;;;;;;;16.63;nan;97040.91;5012733;28;20974;-63
2023/08/19 01:34:49;;;;;;;9.47;8.57;;;;;;;16.56;nan;97038.28;5015916;28;20233;-62
2023/08/19 01:37:23;;;;;;;8.40;7.80;;;;;;;16.57;nan;97039.94;5014814;28;20214;-61
2023/08/19 01:39:51;;;;;;;8.37;7.67;;;;;;;16.57;nan;97044.47;5017793;28;20227;-62
2023/08/19 01:42:21;;;;;;;8.10;7.47;;;;;;;16.49;nan;97046.44;5012727;28;20400;-62
2023/08/19 01:44:49;;;;;;;9.33;7.87;;;;;;;16.47;nan;97047.69;5016264;28;20205;-61
2023/08/19 01:47:17;;;;;;;9.00;8.40;;;;;;;16.50;nan;97052.56;5015959;28;20211;-60
2023/08/19 01:49:45;;;;;;;8.03;7.43;;;;;;;16.45;nan;97049.75;5013720;28;20200;-61
2023/08/19 01:52:13;;;;;;;8.80;8.10;;;;;;;16.38;nan;97057.84;5015534;28;20212;-64
2023/08/19 01:54:41;;;;;;;8.57;7.97;;;;;;;16.23;nan;97047.53;5010917;28;20310;-63
2023/08/19 01:57:09;;;;;;;9.73;8.87;;;;;;;16.20;nan;97048.00;4972063;28;20215;-63
2023/08/19 01:59:38;;;;;;;8.40;7.80;;;;;;;16.22;nan;97047.78;4944198;28;20627;-63
2023/08/19 02:02:06;;;;;;;8.57;7.97;;;;;;;16.24;nan;97051.06;5009732;28;20205;-63
2023/08/19 02:04:34;;;;;;;8.80;8.10;;;;;;;16.20;nan;97043.47;5017976;28;20265;-63
2023/08/19 02:07:02;;;;;;;8.67;7.87;;;;;;;16.16;nan;97047.66;5013617;28;20290;-64
2023/08/19 02:09:30;;;;;;;9.50;8.60;;;;;;;16.17;nan;97059.97;5016960;28;20286;-63
2023/08/19 02:11:58;;;;;;;9.37;8.67;;;;;;;16.15;nan;97059.38;5017446;28;20226;-64
2023/08/19 02:14:26;;;;;;;8.60;7.90;;;;;;;16.15;nan;97058.53;5011108;28;20212;-64
2023/08/19 02:16:55;;;;;;;8.77;7.97;;;;;;;16.11;nan;97050.16;5017272;28;20246;-64
2023/08/19 02:19:23;;;;;;;8.50;7.80;;;;;;;16.08;nan;97052.47;5014823;28;20224;-62
2023/08/19 02:21:51;;;;;;;7.77;7.17;;;;;;;16.03;nan;97050.44;5015385;28;20215;-64
2023/08/19 02:24:19;;;;;;;7.47;6.97;;;;;;;16.02;nan;97040.78;5012361;28;20211;-63
2023/08/19 02:26:47;;;;;;;8.03;7.53;;;;;;;16.00;nan;97041.03;5017216;28;20219;-64
2023/08/19 02:29:15;;;;;;;8.23;7.57;;;;;;;15.97;nan;97040.66;5010242;28;20208;-63
2023/08/19 02:31:43;;;;;;;7.50;7.00;;;;;;;15.93;nan;97039.47;5014825;28;20208;-64
2023/08/19 02:34:12;;;;;;;8.40;7.70;;;;;;;15.91;nan;97037.81;4888326;28;20695;-64
2023/08/19 02:36:40;;;;;;;8.00;7.30;;;;;;;15.93;nan;97039.47;5018631;28;20235;-64
2023/08/19 02:39:08;;;;;;;7.40;6.93;;;;;;;15.96;nan;97039.84;5011513;28;20228;-64
2023/08/19 02:41:36;;;;;;;7.90;7.30;;;;;;;15.94;nan;97043.75;5017886;28;20668;-64
2023/08/19 02:44:04;;;;;;;7.23;6.73;;;;;;;15.88;nan;97042.78;5012680;28;20391;-63
2023/08/19 02:46:31;;;;;;;7.30;6.70;;;;;;;15.87;nan;97041.13;5017064;28;20236;-64
2023/08/19 02:48:59;;;;;;;7.60;7.03;;;;;;;15.87;nan;97051.81;5013363;28;21161;-63
2023/08/19 02:51:29;;;;;;;7.90;7.30;;;;;;;15.84;nan;97057.59;5016078;28;20239;-62
2023/08/19 02:53:57;;;;;;;8.30;7.60;;;;;;;15.82;nan;97065.00;5015233;28;20220;-62
2023/08/19 02:56:25;;;;;;;7.73;7.00;;;;;;;15.76;nan;97062.19;5022262;28;20223;-63
2023/08/19 02:58:53;;;;;;;8.90;7.70;;;;;;;15.71;nan;97066.56;5019304;28;20216;-62
2023/08/19 03:01:20;;;;;;;8.43;7.57;;;;;;;15.72;nan;97060.16;5018961;28;20205;-62
2023/08/19 03:03:48;;;;;;;9.00;8.10;;;;;;;15.71;nan;97069.22;5015869;28;20212;-63
2023/08/19 03:06:16;;;;;;;8.20;7.40;;;;;;;15.66;nan;97064.56;5018572;28;20223;-63
2023/08/19 03:08:45;;;;;;;8.50;7.90;;;;;;;15.63;nan;97073.81;4890475;28;20223;-64
2023/08/19 03:11:12;;;;;;;8.00;7.30;;;;;;;15.60;nan;97073.44;5018249;28;20220;-63
2023/08/19 03:13:40;;;;;;;8.37;7.57;;;;;;;15.58;nan;97073.66;5017094;28;20204;-63
2023/08/19 03:16:08;;;;;;;10.30;7.27;;;;;;;15.53;nan;97070.00;5022289;28;20220;-63
2023/08/19 03:18:35;;;;;;;8.00;7.30;;;;;;;15.52;nan;97079.03;5015237;28;20208;-63
2023/08/19 03:21:03;;;;;;;7.87;7.23;;;;;;;15.49;nan;97074.97;5021921;28;20239;-63
2023/08/19 03:23:31;;;;;;;8.00;7.40;;;;;;;15.48;nan;97070.66;5016748;28;20234;-62
2023/08/19 03:26:00;;;;;;;7.93;7.23;;;;;;;15.44;nan;97064.13;5020083;28;20239;-61
2023/08/19 03:28:28;;;;;;;8.77;8.07;;;;;;;15.45;nan;97065.78;5016517;28;20200;-62
2023/08/19 03:30:56;;;;;;;8.57;7.67;;;;;;;15.46;nan;97072.75;5016228;28;20595;-61
2023/08/19 03:33:23;;;;;;;8.30;7.70;;;;;;;15.45;nan;97071.91;5019814;28;20219;-63
2023/08/19 03:35:51;;;;;;;8.17;7.53;;;;;;;15.49;nan;97070.44;5020640;28;20718;-62
2023/08/19 03:38:19;;;;;;;9.93;9.07;;;;;;;15.51;nan;97064.06;5014212;28;20699;-62
2023/08/19 03:40:47;;;;;;;9.23;8.53;;;;;;;15.51;nan;97066.72;5022657;28;20227;-62
2023/08/19 03:43:16;;;;;;;10.67;9.77;;;;;;;15.63;nan;97067.66;4886234;28;20689;-62
2023/08/19 03:45:43;;;;;;;10.30;9.50;;;;;;;15.65;nan;97075.44;5019206;28;20221;-63
2023/08/19 03:48:12;;;;;;;10.97;10.17;;;;;;;15.77;nan;97073.72;5017807;28;20565;-62
2023/08/19 03:50:40;;;;;;;11.17;10.17;;;;;;;15.82;nan;97070.34;5019404;28;20200;-62
2023/08/19 03:53:07;;;;;;;10.73;9.83;;;;;;;15.86;nan;97060.88;5016750;28;20222;-62
2023/08/19 03:55:35;;;;;;;10.50;9.60;;;;;;;15.85;nan;97053.88;5019886;28;20621;-61
2023/08/19 03:58:03;;;;;;;11.60;10.80;;;;;;;15.79;nan;97071.63;5019255;28;20216;-63
2023/08/19 04:00:33;;;;;;;11.57;10.57;;;;;;;15.75;nan;97073.13;5023293;28;20568;-62
2023/08/19 04:03:00;;;;;;;10.60;9.80;;;;;;;15.75;nan;97078.47;5013146;28;20200;-62
2023/08/19 04:05:28;;;;;;;11.60;10.70;;;;;;;15.73;nan;97091.22;5017343;28;20750;-62
2023/08/19 04:07:56;;;;;;;11.50;10.60;;;;;;;15.72;nan;97089.56;5013697;28;20207;-62
2023/08/19 04:10:24;;;;;;;11.80;10.73;;;;;;;15.74;nan;97088.31;5019624;28;20208;-62
2023/08/19 04:12:52;;;;;;;11.77;10.87;;;;;;;15.67;nan;97090.22;4888823;28;20651;-61
2023/08/19 04:15:19;;;;;;;11.07;10.13;;;;;;;15.65;nan;97094.97;5018843;28;20233;-62
2023/08/19 04:17:49;;;;;;;11.30;10.40;;;;;;;15.63;nan;97092.50;5014254;28;20205;-63
2023/08/19 04:20:17;;;;;;;11.43;10.50;;;;;;;15.53;nan;97078.84;5020036;28;20607;-64
2023/08/19 04:22:44;;;;;;;11.40;10.50;;;;;;;15.61;nan;97099.91;5009265;28;20208;-63
2023/08/19 04:25:12;;;;;;;11.90;10.93;;;;;;;15.56;nan;97105.09;5021205;28;20220;-63
2023/08/19 04:27:40;;;;;;;12.57;11.57;;;;;;;15.61;nan;97102.59;5011957;28;20419;-63
2023/08/19 04:30:08;;;;;;;12.17;11.17;;;;;;;15.61;nan;97107.13;5020721;28;20212;-62
2023/08/19 04:32:36;;;;;;;13.17;12.07;;;;;;;15.62;nan;97112.22;5013093;28;20200;-63
2023/08/19 04:35:07;;;;;;;12.00;11.00;;;;;;;15.62;nan;97114.09;5021531;28;20235;-63
2023/08/19 04:37:34;;;;;;;12.70;11.63;;;;;;;15.65;nan;97119.00;5015132;28;20333;-63
2023/08/19 04:40:03;;;;;;;11.00;10.00;;;;;;;15.68;nan;97115.91;5017204;28;20232;-62
2023/08/19 04:42:30;;;;;;;12.03;10.93;;;;;;;15.63;nan;97124.56;5017853;28;20714;-63
2023/08/19 04:44:58;;;;;;;12.00;10.90;;;;;;;15.73;nan;97125.94;5015458;28;20614;-63
2023/08/19 04:47:26;;;;;;;10.70;9.80;;;;;;;15.74;nan;97122.22;4925764;28;21262;-64
2023/08/19 04:49:54;;;;;;;10.93;10.13;;;;;;;15.71;nan;97122.63;4987468;28;20224;-64
2023/08/19 04:52:23;;;;;;;9.97;9.17;;;;;;;15.77;nan;97121.78;5012225;28;20273;-63
2023/08/19 04:54:50;;;;;;;10.07;9.27;;;;;;;15.80;nan;97120.50;5016980;28;20655;-63
2023/08/19 04:57:18;;;;;;;10.40;9.50;;;;;;;15.85;nan;97123.34;5018935;28;20665;-64
2023/08/19 04:59:46;;;;;;;9.70;9.00;;;;;;;15.86;nan;97128.47;5018349;28;20620;-64
2023/08/19 05:02:14;;;;;;;10.00;9.17;;;;;;;15.86;nan;97133.00;5014068;28;20412;-62
2023/08/19 05:04:41;;;;;;;9.63;8.93;;;;;;;15.85;nan;97126.84;5015685;28;20208;-63
2023/08/19 05:07:09;;;;;;;10.67;9.67;;;;;;;15.87;nan;97119.44;5018310;28;20209;-62
2023/08/19 05:09:38;;;;;;;10.63;9.83;;;;;;;15.97;nan;97126.16;5016740;28;20208;-61
2023/08/19 05:12:07;;;;;;;11.03;10.23;;;;;;;16.02;nan;97124.47;5017237;28;20814;-62
2023/08/19 05:14:35;;;;;;;11.53;10.43;;;;;;;16.11;nan;97127.69;5019657;28;20212;-62
2023/08/19 05:17:03;;;;;;;11.73;10.73;;;;;;;16.15;nan;97128.88;5023581;28;20205;-63
2023/08/19 05:19:33;;;;;;;10.93;10.13;;;;;;;16.17;nan;97132.13;5018034;28;20212;-62
2023/08/19 05:22:01;;;;;;;10.63;9.83;;;;;;;16.29;nan;97123.38;4995730;28;20250;-65
2023/08/19 05:24:29;;;;;;;12.13;10.93;;;;;;;16.39;nan;97131.69;4922549;28;20216;-61
2023/08/19 05:26:58;;;;;;;17.43;10.30;;;;;;;16.51;nan;97128.28;5018097;28;20870;-63
2023/08/19 05:29:26;;;;;;;10.47;9.70;;;;;;;16.58;nan;97131.69;5010340;28;21136;-62
2023/08/19 05:31:54;;;;;;;11.23;10.47;;;;;;;16.70;nan;97137.13;5018263;28;20209;-62
2023/08/19 05:34:22;;;;;;;12.70;11.50;;;;;;;16.67;nan;97138.38;5013384;28;20200;-61
2023/08/19 05:36:50;;;;;;;10.17;9.43;;;;;;;16.76;nan;97137.00;5021030;28;20235;-63
2023/08/19 05:39:17;;;;;;;10.53;9.63;;;;;;;16.82;nan;97131.81;5011544;28;20320;-66
2023/08/19 05:41:45;;;;;;;9.90;9.20;;;;;;;16.86;nan;97133.81;5017869;28;21538;-62
2023/08/19 05:44:14;;;;;;;11.03;10.23;;;;;;;17.21;nan;97140.38;5013477;28;20196;-62
2023/08/19 05:46:43;;;;;;;10.97;10.17;;;;;;;17.38;nan;97137.06;5016480;28;20224;-62
2023/08/19 05:49:11;;;;;;;10.87;10.07;;;;;;;17.58;nan;97144.78;5015543;28;20215;-62
2023/08/19 05:51:38;;;;;;;11.17;10.27;;;;;;;17.55;nan;97140.69;5016465;28;20208;-63
2023/08/19 05:54:06;;;;;;;12.63;11.57;;;;;;;17.62;nan;97141.44;5007376;28;20238;-63
2023/08/19 05:56:35;;;;;;;11.13;10.10;;;;;;;17.53;nan;97142.00;4888613;28;20612;-62
2023/08/19 05:59:02;;;;;;;12.40;11.20;;;;;;;17.74;nan;97143.31;5018115;28;20231;-62
2023/08/19 06:01:31;;;;;;;10.47;9.57;;;;;;;17.88;nan;97146.59;5012884;28;20224;-62
2023/08/19 06:03:59;;;;;;;12.30;11.33;;;;;;;17.97;nan;97147.03;5013634;28;20212;-63
2023/08/19 06:06:27;;;;;;;12.83;11.73;;;;;;;17.98;nan;97143.31;5012375;28;20288;-63
2023/08/19 06:08:55;;;;;;;12.40;10.93;;;;;;;18.11;nan;97144.97;5015718;28;20825;-62
2023/08/19 06:11:23;;;;;;;12.50;11.53;;;;;;;18.21;nan;97145.22;5015326;28;20208;-62
2023/08/19 06:13:51;;;;;;;11.20;10.40;;;;;;;18.29;nan;97144.84;5015665;28;20216;-62
2023/08/19 06:16:19;;;;;;;11.73;10.63;;;;;;;18.39;nan;97146.13;5011117;28;20224;-62
2023/08/19 06:18:48;;;;;;;10.90;10.10;;;;;;;18.65;nan;97144.78;5018922;28;20204;-61
2023/08/19 06:21:17;;;;;;;10.20;9.50;;;;;;;18.93;nan;97144.00;5015620;28;20224;-63
2023/08/19 06:23:44;;;;;;;11.37;10.30;;;;;;;19.10;nan;97135.22;5015179;28;20231;-61
2023/08/19 06:26:12;;;;;;;10.57;9.87;;;;;;;19.26;nan;97132.81;5014843;28;20226;-63
2023/08/19 06:28:40;;;;;;;10.17;9.40;;;;;;;19.29;nan;97130.47;5019953;28;20502;-62
2023/08/19 06:31:08;;;;;;;10.50;9.80;;;;;;;19.55;nan;97132.78;4890717;28;21063;-62
2023/08/19 06:33:36;;;;;;;10.60;9.87;;;;;;;19.62;nan;97136.13;5019562;28;20208;-63
2023/08/19 06:36:07;;;;;;;11.00;10.17;;;;;;;19.93;nan;97137.47;5017572;28;20740;-63
2023/08/19 06:38:35;;;;;;;10.03;9.33;;;;;;;20.10;nan;97142.81;5020389;28;20208;-63
2023/08/19 06:41:06;;;;;;;11.17;9.43;;;;;;;20.43;nan;97143.00;5016569;28;20307;-62
2023/08/19 06:43:35;;;;;;;8.90;8.33;;;;;;;20.65;nan;97151.09;5020856;28;20539;-62
2023/08/19 06:46:03;;;;;;;9.40;8.70;;;;;;;20.86;nan;97147.84;5014832;28;20228;-61
2023/08/19 06:48:32;;;;;;;9.37;8.57;;;;;;;20.90;nan;97149.81;5019905;28;20208;-62
2023/08/19 06:51:01;;;;;;;9.87;9.23;;;;;;;20.97;nan;97149.59;5016880;28;20231;-63
2023/08/19 06:53:31;;;;;;;9.83;8.97;;;;;;;20.94;nan;97148.22;5018954;28;20230;-62
2023/08/19 06:56:05;;;;;;;9.27;8.67;;;;;;;21.20;nan;97153.88;5018313;28;20255;-63
2023/08/19 06:58:35;;;;;;;9.77;8.90;;;;;;;21.68;nan;97151.41;5019121;28;20302;-61
2023/08/19 07:01:04;;;;;;;9.10;8.43;;;;;;;22.58;nan;97146.34;4888781;28;21845;-62
2023/08/19 07:03:32;;;;;;;9.10;8.40;;;;;;;23.09;nan;97139.50;5021364;28;20218;-65
2023/08/19 07:06:01;;;;;;;7.57;7.07;;;;;;;23.30;nan;97150.41;5019518;28;20223;-62
2023/08/19 07:08:31;;;;;;;9.07;8.47;;;;;;;22.93;nan;97154.88;5017558;28;21941;-60
2023/08/19 07:10:59;;;;;;;9.73;8.93;;;;;;;22.58;nan;97153.66;5015684;28;20208;-62
2023/08/19 07:13:27;;;;;;;10.13;9.20;;;;;;;22.55;nan;97150.41;5018258;28;20242;-61
2023/08/19 07:15:59;;;;;;;8.90;8.30;;;;;;;22.58;nan;97157.16;5014980;28;20670;-63
2023/08/19 07:18:28;;;;;;;9.20;8.40;;;;;;;22.51;nan;97157.38;5022478;28;20203;-61
2023/08/19 07:20:57;;;;;;;9.50;8.73;;;;;;;22.50;nan;97154.94;5017889;28;20217;-63
2023/08/19 07:23:25;;;;;;;8.50;7.93;;;;;;;22.55;nan;97158.50;5018675;28;20220;-63
2023/08/19 07:25:55;;;;;;;9.30;8.70;;;;;;;22.53;nan;97155.22;5015091;28;20216;-63
2023/08/19 07:28:23;;;;;;;9.00;8.30;;;;;;;22.62;nan;97160.16;5022811;28;20200;-63
2023/08/19 07:30:52;;;;;;;8.87;8.07;;;;;;;22.83;nan;97147.53;4886694;28;20217;-61
2023/08/19 07:33:19;;;;;;;9.40;8.70;;;;;;;22.83;nan;97148.34;5018144;28;20200;-60
2023/08/19 07:35:47;;;;;;;8.67;8.00;;;;;;;22.91;nan;97152.44;5013921;28;20232;-62
2023/08/19 07:38:15;;;;;;;8.47;7.97;;;;;;;22.97;nan;97147.84;5021194;28;20215;-61
2023/08/19 07:40:43;;;;;;;8.93;8.30;;;;;;;22.91;nan;97157.00;5015544;28;20231;-64
2023/08/19 07:43:11;;;;;;;9.63;8.97;;;;;;;22.86;nan;97157.81;5020515;28;20785;-62
2023/08/19 07:45:41;;;;;;;8.70;8.20;;;;;;;23.14;nan;97155.75;5015459;28;20224;-62
2023/08/19 07:48:09;;;;;;;8.47;7.87;;;;;;;23.26;nan;97155.50;5020248;28;20212;-60
2023/08/19 07:50:37;;;;;;;9.73;8.93;;;;;;;23.16;nan;97163.56;5016153;28;20241;-61
2023/08/19 07:53:04;;;;;;;9.70;8.93;;;;;;;23.25;nan;97165.53;5016518;28;20215;-61
2023/08/19 07:55:32;;;;;;;8.77;8.17;;;;;;;23.45;nan;97163.91;5017891;28;20272;-63
2023/08/19 07:58:00;;;;;;;8.53;8.03;;;;;;;23.44;nan;97162.31;5015633;28;20220;-62
2023/08/19 08:00:30;;;;;;;8.20;7.60;;;;;;;23.46;nan;97148.53;4951418;28;20719;-62
2023/08/19 08:02:58;;;;;;;8.90;8.03;;;;;;;23.65;nan;97163.13;4972191;28;20227;-63
2023/08/19 08:05:25;;;;;;;9.50;8.70;;;;;;;23.87;nan;97162.06;5020120;28;20566;-63
2023/08/19 08:07:53;;;;;;;8.83;8.13;;;;;;;23.97;nan;97162.06;5013836;28;20219;-62
2023/08/19 08:10:21;;;;;;;9.77;8.63;;;;;;;24.01;nan;97165.06;5021359;28;20282;-62
2023/08/19 08:12:48;;;;;;;9.03;8.40;;;;;;;24.02;nan;97164.00;5019799;28;20206;-63
2023/08/19 08:15:16;;;;;;;8.23;7.63;;;;;;;24.07;nan;97163.97;5025129;28;20240;-63
2023/08/19 08:17:45;;;;;;;9.13;8.43;;;;;;;23.95;nan;97161.50;5016718;28;22004;-60
2023/08/19 08:20:13;;;;;;;8.50;8.00;;;;;;;24.06;nan;97158.84;5018799;28;20231;-61
2023/08/19 08:22:41;;;;;;;9.50;8.77;;;;;;;24.41;nan;97152.56;5015048;28;20745;-61
2023/08/19 08:25:10;;;;;;;9.57;8.87;;;;;;;24.28;nan;97158.56;5020048;28;20224;-61
2023/08/19 08:27:38;;;;;;;9.30;8.63;;;;;;;24.36;nan;97157.16;5016219;28;20215;-62
2023/08/19 08:30:06;;;;;;;7.33;6.83;;;;;;;24.59;nan;97150.31;5017383;28;20205;-62
2023/08/19 08:32:34;;;;;;;8.33;7.67;;;;;;;24.84;nan;97149.47;5015554;28;20671;-62
2023/08/19 08:35:04;;;;;;;8.23;7.73;;;;;;;24.78;nan;97139.72;5018863;28;20750;-62
2023/08/19 08:37:33;;;;;;;8.77;8.17;;;;;;;24.95;nan;97144.00;4893322;28;20232;-61
2023/08/19 08:40:01;;;;;;;9.43;8.73;;;;;;;25.06;nan;97147.47;5019760;28;20410;-62
2023/08/19 08:42:28;;;;;;;8.40;7.80;;;;;;;25.12;nan;97138.22;5015384;28;20829;-62
2023/08/19 08:44:56;;;;;;;8.60;7.93;;;;;;;24.95;nan;97141.28;5017992;28;20212;-61
2023/08/19 08:47:24;;;;;;;8.63;7.93;;;;;;;25.02;nan;97141.00;5014535;28;20209;-63
2023/08/19 08:49:53;;;;;;;9.23;8.53;;;;;;;25.22;nan;97143.56;5017693;28;20345;-63
2023/08/19 08:52:23;;;;;;;8.17;7.47;;;;;;;25.15;nan;97143.88;5011431;28;20284;-63
2023/08/19 08:54:52;;;;;;;9.07;8.47;;;;;;;25.38;nan;97144.28;5014602;28;20211;-63
2023/08/19 08:57:20;;;;;;;8.50;8.00;;;;;;;25.69;nan;97162.25;5019380;28;20687;-62
2023/08/19 08:59:48;;;;;;;9.73;8.30;;;;;;;25.51;nan;97152.91;5015777;28;20300;-62
2023/08/19 09:02:16;;;;;;;8.60;7.90;;;;;;;25.68;nan;97153.31;5013326;28;20655;-62
2023/08/19 09:04:45;;;;;;;9.37;8.67;;;;;;;25.80;nan;97157.56;4958807;28;20626;-61
2023/08/19 09:07:17;;;;;;;8.40;7.80;;;;;;;25.68;nan;97157.94;5015472;28;20691;-63
2023/08/19 09:09:46;;;;;;;7.77;7.20;;;;;;;25.82;nan;97156.19;4882056;28;20649;-61
2023/08/19 09:12:14;;;;;;;8.77;8.03;;;;;;;26.01;nan;97152.78;5018002;28;20219;-60
2023/08/19 09:14:43;;;;;;;8.27;7.70;;;;;;;25.72;nan;97158.97;5014079;28;20200;-61
2023/08/19 09:17:12;;;;;;;8.10;7.57;;;;;;;25.98;nan;97154.16;5018523;28;20201;-62
2023/08/19 09:19:40;;;;;;;8.20;7.70;;;;;;;26.06;nan;97160.88;5014296;28;20192;-62
2023/08/19 09:22:12;;;;;;;8.47;7.80;;;;;;;26.17;nan;97172.47;5012603;28;20219;-60
2023/08/19 09:24:39;;;;;;;8.70;7.60;;;;;;;26.41;nan;97172.50;5010802;28;20217;-61
2023/08/19 09:27:08;;;;;;;7.73;7.23;;;;;;;26.28;nan;97170.47;5015068;28;20208;-61
2023/08/19 09:29:36;;;;;;;7.93;7.43;;;;;;;26.09;nan;97165.72;5013629;28;20211;-62
2023/08/19 09:32:05;;;;;;;7.80;7.00;;;;;;;26.22;nan;97160.75;5017723;28;20209;-61
2023/08/19 09:34:33;;;;;;;7.20;6.70;;;;;;;26.44;nan;97165.69;5017165;28;20213;-61
2023/08/19 09:37:02;;;;;;;7.40;6.90;;;;;;;26.54;nan;97154.72;5015681;28;20228;-61
2023/08/19 09:39:34;;;;;;;6.53;6.10;;;;;;;26.63;nan;97156.78;5015384;28;20306;-61
2023/08/19 09:42:02;;;;;;;7.23;6.67;;;;;;;26.78;nan;97162.06;5013278;28;20211;-63
2023/08/19 09:44:32;;;;;;;6.83;6.43;;;;;;;26.80;nan;97148.16;4920714;28;21334;-62
2023/08/19 09:47:03;;;;;;;5.83;5.43;;;;;;;26.93;nan;97161.09;4989288;28;20697;-62
2023/08/19 09:49:31;;;;;;;7.00;6.50;;;;;;;26.97;nan;97162.13;5016645;28;20209;-61
2023/08/19 09:51:59;;;;;;;7.03;6.37;;;;;;;27.00;nan;97163.44;5013405;28;20207;-62
2023/08/19 09:54:27;;;;;;;5.00;4.70;;;;;;;27.00;nan;97160.72;5015847;28;20525;-62
2023/08/19 09:56:56;;;;;;;6.33;5.93;;;;;;;26.91;nan;97157.03;5014418;28;20259;-62
2023/08/19 09:59:24;;;;;;;6.10;5.60;;;;;;;26.99;nan;97159.91;5015664;28;20208;-62
2023/08/19 10:01:54;;;;;;;6.47;5.97;;;;;;;27.00;nan;97155.28;5019189;28;20413;-62
2023/08/19 10:04:22;;;;;;;6.43;5.97;;;;;;;27.15;nan;97146.09;5017175;28;20232;-63
2023/08/19 10:06:52;;;;;;;5.57;5.17;;;;;;;27.35;nan;97163.25;5019435;28;20249;-62
2023/08/19 10:09:24;;;;;;;5.13;4.90;;;;;;;27.37;nan;97161.84;5016031;28;21341;-63
2023/08/19 10:11:54;;;;;;;5.97;5.43;;;;;;;27.39;nan;97140.59;5020569;28;20221;-62
2023/08/19 10:14:31;;;;;;;5.10;4.67;;;;;;;27.52;nan;97152.66;4961900;28;20411;-62
2023/08/19 10:17:03;;;;;;;5.20;4.90;;;;;;;27.66;nan;97160.91;5002344;28;20238;-62
2023/08/19 10:19:38;;;;;;;5.23;4.90;;;;;;;27.48;nan;97145.38;5017733;28;20211;-62
2023/08/19 10:22:06;;;;;;;6.63;5.73;;;;;;;27.58;nan;97158.84;5020380;28;20231;-61
2023/08/19 10:24:35;;;;;;;6.27;5.87;;;;;;;27.62;nan;97156.34;5016173;28;20236;-61
2023/08/19 10:27:03;;;;;;;5.73;5.43;;;;;;;27.81;nan;97161.75;5020385;28;20236;-61
2023/08/19 10:29:31;;;;;;;6.10;5.80;;;;;;;27.88;nan;97163.00;5017343;28;20205;-62
2023/08/19 10:32:30;;;;;;;5.03;4.83;;;;;;;27.96;nan;97157.97;5015537;28;20274;-61
2023/08/19 10:35:08;;;;;;;5.77;5.37;;;;;;;27.95;nan;97156.34;5018829;28;20223;-62
2023/08/19 10:37:41;;;;;;;5.03;4.73;;;;;;;27.90;nan;97153.72;5019734;28;20221;-62
2023/08/19 10:40:12;;;;;;;5.37;4.87;;;;;;;27.95;nan;97157.16;5018470;28;20881;-62
2023/08/19 10:42:40;;;;;;;5.70;5.30;;;;;;;27.88;nan;97152.09;5020805;28;20208;-61
2023/08/19 10:45:14;;;;;;;6.13;5.67;;;;;;;27.98;nan;97166.63;5015498;28;20236;-62
2023/08/19 10:47:44;;;;;;;5.93;5.60;;;;;;;28.10;nan;97160.72;5020180;28;20204;-62
2023/08/19 10:50:12;;;;;;;5.73;5.43;;;;;;;28.03;nan;97156.47;4889190;28;20209;-63
2023/08/19 10:52:58;;;;;;;5.63;5.20;;;;;;;28.05;nan;97158.09;5020531;28;20207;-62
2023/08/19 10:55:26;;;;;;;5.37;5.07;;;;;;;28.17;nan;97144.81;5018093;28;20840;-62
2023/08/19 10:57:56;;;;;;;5.60;5.20;;;;;;;28.12;nan;97143.00;5020313;28;20224;-63
2023/08/19 11:00:25;;;;;;;5.67;5.17;;;;;;;28.22;nan;97152.91;5016971;28;20211;-63
2023/08/19 11:02:54;;;;;;;5.30;5.00;;;;;;;28.36;nan;97149.41;5020852;28;20213;-62
2023/08/19 11:05:26;;;;;;;6.13;5.63;;;;;;;28.30;nan;97152.22;5016520;28;20745;-61
2023/08/19 11:07:54;;;;;;;6.13;5.63;;;;;;;28.27;nan;97152.00;5018148;28;20215;-61
2023/08/19 11:10:23;;;;;;;5.30;5.00;;;;;;;28.39;nan;97154.25;5018089;28;20200;-63
2023/08/19 11:12:50;;;;;;;6.10;5.70;;;;;;;28.39;nan;97156.97;5019918;28;20227;-61
2023/08/19 11:15:23;;;;;;;5.50;5.10;;;;;;;28.51;nan;97153.75;5017886;28;20231;-63
2023/08/19 11:17:51;;;;;;;5.03;4.73;;;;;;;28.44;nan;97156.88;5023071;28;20208;-63
2023/08/19 11:20:20;;;;;;;5.17;4.87;;;;;;;28.39;nan;97157.75;5018149;28;20203;-63
2023/08/19 11:22:50;;;;;;;6.27;5.27;;;;;;;28.59;nan;97158.50;5017835;28;20223;-62
2023/08/19 11:25:19;;;;;;;4.83;4.53;;;;;;;28.76;nan;97163.34;4885036;28;20708;-62
2023/08/19 11:27:47;;;;;;;5.30;4.90;;;;;;;28.73;nan;97158.50;5022801;28;20208;-62
2023/08/19 11:30:18;;;;;;;4.43;4.20;;;;;;;28.81;nan;97157.81;5014828;28;20314;-62
2023/08/19 11:32:46;;;;;;;5.47;4.87;;;;;;;28.72;nan;97146.78;5017808;28;20382;-62
2023/08/19 11:35:13;;;;;;;5.07;4.77;;;;;;;28.78;nan;97152.97;5017015;28;20228;-62
2023/08/19 11:37:42;;;;;;;4.90;4.53;;;;;;;29.02;nan;97147.28;5019327;28;20572;-63
2023/08/19 11:40:13;;;;;;;5.30;5.00;;;;;;;29.03;nan;97153.56;5014063;28;20208;-62
2023/08/19 11:43:05;;;;;;;4.57;4.33;;;;;;;29.00;nan;97151.44;5018927;28;20944;-63
2023/08/19 11:45:37;;;;;;;5.03;4.73;;;;;;;29.11;nan;97149.28;5017510;28;20232;-63
2023/08/19 11:48:05;;;;;;;5.57;4.70;;;;;;;29.29;nan;97147.50;5018353;28;20230;-63
2023/08/19 11:50:34;;;;;;;4.87;4.57;;;;;;;29.30;nan;97149.94;5017966;28;20205;-64
2023/08/19 11:53:04;;;;;;;4.80;4.40;;;;;;;29.35;nan;97151.72;5021829;28;20206;-62